sensor_id;sensor_type;location;lat;lon;timestamp;temperature;humidity
68943;DHT22;60852;52.190;4.422;2023-08-31T00:01:40;16.52;72.53
68943;DHT22;60852;52.190;4.422;2023-08-31T00:04:06;16.42;72.44
68943;DHT22;60852;52.190;4.422;2023-08-31T00:06:42;16.28;70.37
68943;DHT22;60852;52.190;4.422;2023-08-31T00:09:10;16.19;69.86
68943;DHT22;60852;52.190;4.422;2023-08-31T00:11:37;16.19;70.02
68943;DHT22;60852;52.190;4.422;2023-08-31T00:14:03;16.21;70.17
68943;DHT22;60852;52.190;4.422;2023-08-31T00:16:29;16.23;69.97
68943;DHT22;60852;52.190;4.422;2023-08-31T00:18:56;16.29;69.64
68943;DHT22;60852;52.190;4.422;2023-08-31T00:21:21;16.32;69.33
68943;DHT22;60852;52.190;4.422;2023-08-31T00:23:47;16.32;68.75
68943;DHT22;60852;52.190;4.422;2023-08-31T00:26:13;16.32;68.59
68943;DHT22;60852;52.190;4.422;2023-08-31T00:28:40;16.33;68.29
68943;DHT22;60852;52.190;4.422;2023-08-31T00:31:08;16.32;68.56
68943;DHT22;60852;52.190;4.422;2023-08-31T00:33:34;16.35;68.50
68943;DHT22;60852;52.190;4.422;2023-08-31T00:36:00;16.35;68.11
68943;DHT22;60852;52.190;4.422;2023-08-31T00:38:27;16.33;68.74
68943;DHT22;60852;52.190;4.422;2023-08-31T00:40:53;16.35;68.59
68943;DHT22;60852;52.190;4.422;2023-08-31T00:43:19;16.38;68.51
68943;DHT22;60852;52.190;4.422;2023-08-31T00:45:50;16.41;68.63
68943;DHT22;60852;52.190;4.422;2023-08-31T00:48:17;16.46;68.19
68943;DHT22;60852;52.190;4.422;2023-08-31T00:50:44;16.45;68.08
68943;DHT22;60852;52.190;4.422;2023-08-31T00:53:10;16.49;68.30
68943;DHT22;60852;52.190;4.422;2023-08-31T00:55:36;16.51;68.88
68943;DHT22;60852;52.190;4.422;2023-08-31T00:58:02;16.57;69.30
68943;DHT22;60852;52.190;4.422;2023-08-31T01:03:13;16.59;71.16
68943;DHT22;60852;52.190;4.422;2023-08-31T01:06:07;16.42;71.56
68943;DHT22;60852;52.190;4.422;2023-08-31T01:08:43;16.32;70.57
68943;DHT22;60852;52.190;4.422;2023-08-31T01:11:34;16.30;69.02
68943;DHT22;60852;52.190;4.422;2023-08-31T01:14:08;16.30;68.33
68943;DHT22;60852;52.190;4.422;2023-08-31T01:16:40;16.32;68.20
68943;DHT22;60852;52.190;4.422;2023-08-31T01:19:23;16.26;67.97
68943;DHT22;60852;52.190;4.422;2023-08-31T01:22:00;16.21;68.36
68943;DHT22;60852;52.190;4.422;2023-08-31T01:24:26;16.19;68.64
68943;DHT22;60852;52.190;4.422;2023-08-31T01:26:53;16.19;68.81
68943;DHT22;60852;52.190;4.422;2023-08-31T01:29:19;16.23;68.91
68943;DHT22;60852;52.190;4.422;2023-08-31T01:31:44;16.22;68.99
68943;DHT22;60852;52.190;4.422;2023-08-31T01:34:10;16.23;68.97
68943;DHT22;60852;52.190;4.422;2023-08-31T01:36:41;16.25;68.55
68943;DHT22;60852;52.190;4.422;2023-08-31T01:39:23;16.21;68.09
68943;DHT22;60852;52.190;4.422;2023-08-31T01:41:57;16.30;68.19
68943;DHT22;60852;52.190;4.422;2023-08-31T01:44:25;16.39;68.62
68943;DHT22;60852;52.190;4.422;2023-08-31T01:46:53;16.45;68.94
68943;DHT22;60852;52.190;4.422;2023-08-31T01:49:20;16.53;68.40
68943;DHT22;60852;52.190;4.422;2023-08-31T01:51:46;16.62;68.03
68943;DHT22;60852;52.190;4.422;2023-08-31T01:54:12;16.66;67.34
68943;DHT22;60852;52.190;4.422;2023-08-31T01:56:37;16.66;66.61
68943;DHT22;60852;52.190;4.422;2023-08-31T01:59:03;16.66;66.88
68943;DHT22;60852;52.190;4.422;2023-08-31T02:01:28;16.70;67.22
68943;DHT22;60852;52.190;4.422;2023-08-31T02:03:54;16.74;67.10
68943;DHT22;60852;52.190;4.422;2023-08-31T02:06:20;16.80;67.53
68943;DHT22;60852;52.190;4.422;2023-08-31T02:08:45;16.87;67.84
68943;DHT22;60852;52.190;4.422;2023-08-31T02:11:13;16.88;67.20
68943;DHT22;60852;52.190;4.422;2023-08-31T02:13:38;16.90;66.27
68943;DHT22;60852;52.190;4.422;2023-08-31T02:16:04;16.90;65.84
68943;DHT22;60852;52.190;4.422;2023-08-31T02:18:29;16.94;66.18
68943;DHT22;60852;52.190;4.422;2023-08-31T02:20:55;17.00;66.23
68943;DHT22;60852;52.190;4.422;2023-08-31T02:23:20;16.93;65.64
68943;DHT22;60852;52.190;4.422;2023-08-31T02:25:46;16.95;66.80
68943;DHT22;60852;52.190;4.422;2023-08-31T02:28:11;16.97;66.98
68943;DHT22;60852;52.190;4.422;2023-08-31T02:30:37;16.95;66.91
68943;DHT22;60852;52.190;4.422;2023-08-31T02:33:03;16.90;67.13
68943;DHT22;60852;52.190;4.422;2023-08-31T02:35:28;16.93;67.66
68943;DHT22;60852;52.190;4.422;2023-08-31T02:37:54;16.99;66.90
68943;DHT22;60852;52.190;4.422;2023-08-31T02:40:19;16.97;67.30
68943;DHT22;60852;52.190;4.422;2023-08-31T02:42:50;16.99;67.68
68943;DHT22;60852;52.190;4.422;2023-08-31T02:45:16;17.04;67.14
68943;DHT22;60852;52.190;4.422;2023-08-31T02:47:43;17.07;66.97
68943;DHT22;60852;52.190;4.422;2023-08-31T02:50:08;17.00;66.74
68943;DHT22;60852;52.190;4.422;2023-08-31T02:52:34;17.04;67.28
68943;DHT22;60852;52.190;4.422;2023-08-31T02:54:59;17.07;67.40
68943;DHT22;60852;52.190;4.422;2023-08-31T02:57:25;17.01;66.83
68943;DHT22;60852;52.190;4.422;2023-08-31T02:59:50;17.03;66.24
68943;DHT22;60852;52.190;4.422;2023-08-31T03:02:16;17.06;67.42
68943;DHT22;60852;52.190;4.422;2023-08-31T03:04:41;17.08;67.12
68943;DHT22;60852;52.190;4.422;2023-08-31T03:07:07;17.08;67.51
68943;DHT22;60852;52.190;4.422;2023-08-31T03:09:32;17.08;67.37
68943;DHT22;60852;52.190;4.422;2023-08-31T03:11:58;17.08;67.59
68943;DHT22;60852;52.190;4.422;2023-08-31T03:14:23;17.07;67.23
68943;DHT22;60852;52.190;4.422;2023-08-31T03:16:49;17.07;67.14
68943;DHT22;60852;52.190;4.422;2023-08-31T03:19:14;17.08;67.65
68943;DHT22;60852;52.190;4.422;2023-08-31T03:21:40;17.07;68.15
68943;DHT22;60852;52.190;4.422;2023-08-31T03:24:05;17.03;68.08
68943;DHT22;60852;52.190;4.422;2023-08-31T03:26:31;16.97;67.40
68943;DHT22;60852;52.190;4.422;2023-08-31T03:28:56;17.01;67.31
68943;DHT22;60852;52.190;4.422;2023-08-31T03:31:23;17.08;67.44
68943;DHT22;60852;52.190;4.422;2023-08-31T03:33:50;17.14;67.50
68943;DHT22;60852;52.190;4.422;2023-08-31T03:36:16;17.14;68.26
68943;DHT22;60852;52.190;4.422;2023-08-31T03:38:41;17.12;67.98
68943;DHT22;60852;52.190;4.422;2023-08-31T03:41:06;17.12;67.77
68943;DHT22;60852;52.190;4.422;2023-08-31T03:43:32;17.08;67.66
68943;DHT22;60852;52.190;4.422;2023-08-31T03:45:58;17.07;67.99
68943;DHT22;60852;52.190;4.422;2023-08-31T03:48:24;17.14;68.08
68943;DHT22;60852;52.190;4.422;2023-08-31T03:50:51;17.10;66.97
68943;DHT22;60852;52.190;4.422;2023-08-31T03:53:16;17.04;66.57
68943;DHT22;60852;52.190;4.422;2023-08-31T03:55:42;17.07;69.92
68943;DHT22;60852;52.190;4.422;2023-08-31T03:58:07;17.03;73.03
68943;DHT22;60852;52.190;4.422;2023-08-31T04:00:33;16.90;75.46
68943;DHT22;60852;52.190;4.422;2023-08-31T04:02:58;16.66;76.40
68943;DHT22;60852;52.190;4.422;2023-08-31T04:05:24;16.43;75.75
68943;DHT22;60852;52.190;4.422;2023-08-31T04:07:49;16.29;75.75
68943;DHT22;60852;52.190;4.422;2023-08-31T04:10:14;16.18;75.82
68943;DHT22;60852;52.190;4.422;2023-08-31T04:12:40;16.05;74.42
68943;DHT22;60852;52.190;4.422;2023-08-31T04:15:08;16.01;74.83
68943;DHT22;60852;52.190;4.422;2023-08-31T04:17:34;16.02;74.51
68943;DHT22;60852;52.190;4.422;2023-08-31T04:19:59;15.98;72.83
68943;DHT22;60852;52.190;4.422;2023-08-31T04:22:26;16.01;73.49
68943;DHT22;60852;52.190;4.422;2023-08-31T04:24:52;16.08;73.99
68943;DHT22;60852;52.190;4.422;2023-08-31T04:27:18;16.11;73.94
68943;DHT22;60852;52.190;4.422;2023-08-31T04:29:44;16.14;73.37
68943;DHT22;60852;52.190;4.422;2023-08-31T04:32:09;16.25;73.39
68943;DHT22;60852;52.190;4.422;2023-08-31T04:34:35;16.38;73.82
68943;DHT22;60852;52.190;4.422;2023-08-31T04:37:01;16.39;73.34
68943;DHT22;60852;52.190;4.422;2023-08-31T04:39:27;16.45;73.83
68943;DHT22;60852;52.190;4.422;2023-08-31T04:41:52;16.55;74.28
68943;DHT22;60852;52.190;4.422;2023-08-31T04:44:18;16.57;74.42
68943;DHT22;60852;52.190;4.422;2023-08-31T04:46:44;16.53;76.36
68943;DHT22;60852;52.190;4.422;2023-08-31T04:49:09;16.38;75.74
68943;DHT22;60852;52.190;4.422;2023-08-31T04:51:35;16.23;75.59
68943;DHT22;60852;52.190;4.422;2023-08-31T04:54:06;16.12;76.51
68943;DHT22;60852;52.190;4.422;2023-08-31T04:56:33;16.08;76.83
68943;DHT22;60852;52.190;4.422;2023-08-31T04:59:00;15.97;76.57
68943;DHT22;60852;52.190;4.422;2023-08-31T05:01:25;15.87;75.87
68943;DHT22;60852;52.190;4.422;2023-08-31T05:03:51;15.84;75.87
68943;DHT22;60852;52.190;4.422;2023-08-31T05:06:17;15.94;76.02
68943;DHT22;60852;52.190;4.422;2023-08-31T05:08:42;15.95;75.72
68943;DHT22;60852;52.190;4.422;2023-08-31T05:11:08;16.00;75.85
68943;DHT22;60852;52.190;4.422;2023-08-31T05:13:34;16.05;75.71
68943;DHT22;60852;52.190;4.422;2023-08-31T05:16:00;16.14;75.60
68943;DHT22;60852;52.190;4.422;2023-08-31T05:18:25;16.16;75.31
68943;DHT22;60852;52.190;4.422;2023-08-31T05:20:51;16.16;75.19
68943;DHT22;60852;52.190;4.422;2023-08-31T05:23:16;16.14;74.25
68943;DHT22;60852;52.190;4.422;2023-08-31T05:25:42;16.22;74.51
68943;DHT22;60852;52.190;4.422;2023-08-31T05:28:08;16.33;74.30
68943;DHT22;60852;52.190;4.422;2023-08-31T05:30:33;16.33;74.51
68943;DHT22;60852;52.190;4.422;2023-08-31T05:33:00;16.39;74.36
68943;DHT22;60852;52.190;4.422;2023-08-31T05:35:26;16.39;74.31
68943;DHT22;60852;52.190;4.422;2023-08-31T05:37:52;16.48;74.65
68943;DHT22;60852;52.190;4.422;2023-08-31T05:40:17;16.52;74.56
68943;DHT22;60852;52.190;4.422;2023-08-31T05:42:43;16.55;74.60
68943;DHT22;60852;52.190;4.422;2023-08-31T05:45:09;16.56;73.54
68943;DHT22;60852;52.190;4.422;2023-08-31T05:47:35;16.62;73.45
68943;DHT22;60852;52.190;4.422;2023-08-31T05:50:01;16.62;72.31
68943;DHT22;60852;52.190;4.422;2023-08-31T05:52:27;16.64;74.00
68943;DHT22;60852;52.190;4.422;2023-08-31T05:54:52;16.63;74.54
68943;DHT22;60852;52.190;4.422;2023-08-31T05:57:19;16.64;75.01
68943;DHT22;60852;52.190;4.422;2023-08-31T05:59:47;16.51;74.15
68943;DHT22;60852;52.190;4.422;2023-08-31T06:02:12;16.43;73.48
68943;DHT22;60852;52.190;4.422;2023-08-31T06:04:37;16.43;73.59
68943;DHT22;60852;52.190;4.422;2023-08-31T06:07:03;16.46;73.65
68943;DHT22;60852;52.190;4.422;2023-08-31T06:09:28;16.49;74.65
68943;DHT22;60852;52.190;4.422;2023-08-31T06:11:54;16.49;75.29
68943;DHT22;60852;52.190;4.422;2023-08-31T06:14:20;16.48;75.26
68943;DHT22;60852;52.190;4.422;2023-08-31T06:16:45;16.48;74.85
68943;DHT22;60852;52.190;4.422;2023-08-31T06:19:10;16.49;75.09
68943;DHT22;60852;52.190;4.422;2023-08-31T06:21:36;16.57;75.59
68943;DHT22;60852;52.190;4.422;2023-08-31T06:24:01;16.70;75.52
68943;DHT22;60852;52.190;4.422;2023-08-31T06:26:29;16.64;74.95
68943;DHT22;60852;52.190;4.422;2023-08-31T06:28:54;16.56;74.47
68943;DHT22;60852;52.190;4.422;2023-08-31T06:31:19;16.60;74.47
68943;DHT22;60852;52.190;4.422;2023-08-31T06:33:45;16.69;74.91
68943;DHT22;60852;52.190;4.422;2023-08-31T06:36:10;16.67;73.96
68943;DHT22;60852;52.190;4.422;2023-08-31T06:38:36;16.77;73.30
68943;DHT22;60852;52.190;4.422;2023-08-31T06:41:02;16.91;72.81
68943;DHT22;60852;52.190;4.422;2023-08-31T06:43:27;16.95;72.41
68943;DHT22;60852;52.190;4.422;2023-08-31T06:45:53;17.00;72.14
68943;DHT22;60852;52.190;4.422;2023-08-31T06:48:19;16.99;71.74
68943;DHT22;60852;52.190;4.422;2023-08-31T06:50:44;17.07;71.81
68943;DHT22;60852;52.190;4.422;2023-08-31T06:53:10;17.15;71.54
68943;DHT22;60852;52.190;4.422;2023-08-31T06:55:35;17.15;70.95
68943;DHT22;60852;52.190;4.422;2023-08-31T06:58:01;17.12;70.77
68943;DHT22;60852;52.190;4.422;2023-08-31T07:00:28;17.17;71.29
68943;DHT22;60852;52.190;4.422;2023-08-31T07:02:53;17.17;70.92
68943;DHT22;60852;52.190;4.422;2023-08-31T07:05:19;17.21;70.98
68943;DHT22;60852;52.190;4.422;2023-08-31T07:07:52;17.30;71.31
68943;DHT22;60852;52.190;4.422;2023-08-31T07:10:18;17.17;68.85
68943;DHT22;60852;52.190;4.422;2023-08-31T07:12:43;17.22;68.90
68943;DHT22;60852;52.190;4.422;2023-08-31T07:15:09;17.27;69.21
68943;DHT22;60852;52.190;4.422;2023-08-31T07:17:34;17.22;69.52
68943;DHT22;60852;52.190;4.422;2023-08-31T07:20:00;17.18;68.92
68943;DHT22;60852;52.190;4.422;2023-08-31T07:22:25;17.25;68.36
68943;DHT22;60852;52.190;4.422;2023-08-31T07:24:51;17.31;68.71
68943;DHT22;60852;52.190;4.422;2023-08-31T07:27:16;17.35;68.34
68943;DHT22;60852;52.190;4.422;2023-08-31T07:29:42;17.36;68.47
68943;DHT22;60852;52.190;4.422;2023-08-31T07:32:07;17.38;68.51
68943;DHT22;60852;52.190;4.422;2023-08-31T07:34:33;17.46;68.96
68943;DHT22;60852;52.190;4.422;2023-08-31T07:36:59;17.43;67.61
68943;DHT22;60852;52.190;4.422;2023-08-31T07:39:25;17.56;67.96
68943;DHT22;60852;52.190;4.422;2023-08-31T07:41:53;17.65;67.16
68943;DHT22;60852;52.190;4.422;2023-08-31T07:44:19;17.85;66.98
68943;DHT22;60852;52.190;4.422;2023-08-31T07:46:45;18.01;67.64
68943;DHT22;60852;52.190;4.422;2023-08-31T07:49:10;18.01;66.16
68943;DHT22;60852;52.190;4.422;2023-08-31T07:51:36;17.93;67.11
68943;DHT22;60852;52.190;4.422;2023-08-31T07:54:01;17.93;67.35
68943;DHT22;60852;52.190;4.422;2023-08-31T07:56:28;17.93;67.02
68943;DHT22;60852;52.190;4.422;2023-08-31T07:58:54;17.99;66.35
68943;DHT22;60852;52.190;4.422;2023-08-31T08:01:20;17.96;65.85
68943;DHT22;60852;52.190;4.422;2023-08-31T08:03:45;17.92;66.19
68943;DHT22;60852;52.190;4.422;2023-08-31T08:06:10;17.94;66.02
68943;DHT22;60852;52.190;4.422;2023-08-31T08:08:36;18.01;66.86
68943;DHT22;60852;52.190;4.422;2023-08-31T08:11:04;18.06;67.38
68943;DHT22;60852;52.190;4.422;2023-08-31T08:13:30;18.09;66.37
68943;DHT22;60852;52.190;4.422;2023-08-31T08:15:55;18.13;65.69
68943;DHT22;60852;52.190;4.422;2023-08-31T08:18:21;18.13;64.92
68943;DHT22;60852;52.190;4.422;2023-08-31T08:20:53;18.16;65.84
68943;DHT22;60852;52.190;4.422;2023-08-31T08:23:19;18.13;64.70
68943;DHT22;60852;52.190;4.422;2023-08-31T08:25:44;18.24;65.96
68943;DHT22;60852;52.190;4.422;2023-08-31T08:28:10;18.23;65.45
68943;DHT22;60852;52.190;4.422;2023-08-31T08:30:36;18.20;65.35
68943;DHT22;60852;52.190;4.422;2023-08-31T08:33:01;18.27;66.10
68943;DHT22;60852;52.190;4.422;2023-08-31T08:35:27;18.43;65.65
68943;DHT22;60852;52.190;4.422;2023-08-31T08:37:53;18.43;64.23
68943;DHT22;60852;52.190;4.422;2023-08-31T08:40:19;18.34;62.84
68943;DHT22;60852;52.190;4.422;2023-08-31T08:42:47;18.38;64.15
68943;DHT22;60852;52.190;4.422;2023-08-31T08:45:16;18.41;64.89
68943;DHT22;60852;52.190;4.422;2023-08-31T08:47:46;18.55;65.69
68943;DHT22;60852;52.190;4.422;2023-08-31T08:50:12;18.67;63.85
68943;DHT22;60852;52.190;4.422;2023-08-31T08:52:41;18.69;61.71
68943;DHT22;60852;52.190;4.422;2023-08-31T08:55:08;18.57;61.93
68943;DHT22;60852;52.190;4.422;2023-08-31T08:57:34;18.72;63.43
68943;DHT22;60852;52.190;4.422;2023-08-31T09:00:00;18.68;63.34
68943;DHT22;60852;52.190;4.422;2023-08-31T09:02:25;18.58;62.14
68943;DHT22;60852;52.190;4.422;2023-08-31T09:04:51;18.54;62.62
68943;DHT22;60852;52.190;4.422;2023-08-31T09:07:21;18.69;63.21
68943;DHT22;60852;52.190;4.422;2023-08-31T09:09:51;18.72;62.93
68943;DHT22;60852;52.190;4.422;2023-08-31T09:12:17;18.65;62.53
68943;DHT22;60852;52.190;4.422;2023-08-31T09:14:43;18.57;61.80
68943;DHT22;60852;52.190;4.422;2023-08-31T09:17:23;18.72;62.55
68943;DHT22;60852;52.190;4.422;2023-08-31T09:19:59;18.79;61.85
68943;DHT22;60852;52.190;4.422;2023-08-31T09:22:25;18.81;61.03
68943;DHT22;60852;52.190;4.422;2023-08-31T09:24:50;18.81;60.61
68943;DHT22;60852;52.190;4.422;2023-08-31T09:27:16;18.79;60.94
68943;DHT22;60852;52.190;4.422;2023-08-31T09:29:45;18.87;61.96
68943;DHT22;60852;52.190;4.422;2023-08-31T09:32:16;18.73;59.75
68943;DHT22;60852;52.190;4.422;2023-08-31T09:34:42;18.69;59.68
68943;DHT22;60852;52.190;4.422;2023-08-31T09:37:11;18.65;60.32
68943;DHT22;60852;52.190;4.422;2023-08-31T09:39:39;18.75;61.15
68943;DHT22;60852;52.190;4.422;2023-08-31T09:42:05;18.92;61.63
68943;DHT22;60852;52.190;4.422;2023-08-31T09:44:31;18.99;60.65
68943;DHT22;60852;52.190;4.422;2023-08-31T09:46:57;19.06;60.67
68943;DHT22;60852;52.190;4.422;2023-08-31T09:49:25;19.10;60.54
68943;DHT22;60852;52.190;4.422;2023-08-31T09:51:51;18.98;58.90
68943;DHT22;60852;52.190;4.422;2023-08-31T09:54:19;19.00;60.27
68943;DHT22;60852;52.190;4.422;2023-08-31T09:56:47;19.00;60.18
68943;DHT22;60852;52.190;4.422;2023-08-31T09:59:15;19.03;60.64
68943;DHT22;60852;52.190;4.422;2023-08-31T10:01:43;19.12;61.28
68943;DHT22;60852;52.190;4.422;2023-08-31T10:04:09;19.12;60.14
68943;DHT22;60852;52.190;4.422;2023-08-31T10:06:38;19.13;60.60
68943;DHT22;60852;52.190;4.422;2023-08-31T10:09:04;19.09;60.86
68943;DHT22;60852;52.190;4.422;2023-08-31T10:11:31;19.13;60.12
68943;DHT22;60852;52.190;4.422;2023-08-31T10:13:58;19.47;58.96
68943;DHT22;60852;52.190;4.422;2023-08-31T10:16:27;20.29;54.91
68943;DHT22;60852;52.190;4.422;2023-08-31T10:18:55;20.79;54.63
68943;DHT22;60852;52.190;4.422;2023-08-31T10:21:21;21.06;54.35
68943;DHT22;60852;52.190;4.422;2023-08-31T10:23:48;21.34;53.39
68943;DHT22;60852;52.190;4.422;2023-08-31T10:26:40;21.69;50.92
68943;DHT22;60852;52.190;4.422;2023-08-31T10:29:05;21.82;51.19
68943;DHT22;60852;52.190;4.422;2023-08-31T10:31:32;21.92;50.91
68943;DHT22;60852;52.190;4.422;2023-08-31T10:34:00;21.85;51.57
68943;DHT22;60852;52.190;4.422;2023-08-31T10:36:44;22.14;52.34
68943;DHT22;60852;52.190;4.422;2023-08-31T10:39:15;22.47;51.36
68943;DHT22;60852;52.190;4.422;2023-08-31T10:41:42;22.39;49.33
68943;DHT22;60852;52.190;4.422;2023-08-31T10:44:26;22.44;49.28
68943;DHT22;60852;52.190;4.422;2023-08-31T10:46:53;22.41;49.47
68943;DHT22;60852;52.190;4.422;2023-08-31T10:49:20;22.34;48.04
68943;DHT22;60852;52.190;4.422;2023-08-31T10:54:26;22.07;49.27
68943;DHT22;60852;52.190;4.422;2023-08-31T10:56:56;21.72;50.42
68943;DHT22;60852;52.190;4.422;2023-08-31T10:59:47;21.67;52.84
68943;DHT22;60852;52.190;4.422;2023-08-31T11:05:07;21.35;52.71
68943;DHT22;60852;52.190;4.422;2023-08-31T11:07:33;21.01;53.50
68943;DHT22;60852;52.190;4.422;2023-08-31T11:10:30;21.06;53.08
68943;DHT22;60852;52.190;4.422;2023-08-31T11:12:56;21.06;52.43
68943;DHT22;60852;52.190;4.422;2023-08-31T11:15:24;20.98;51.96
68943;DHT22;60852;52.190;4.422;2023-08-31T11:17:52;20.80;52.13
68943;DHT22;60852;52.190;4.422;2023-08-31T11:20:20;20.77;53.94
68943;DHT22;60852;52.190;4.422;2023-08-31T11:22:48;20.69;52.62
68943;DHT22;60852;52.190;4.422;2023-08-31T11:25:19;20.69;52.49
68943;DHT22;60852;52.190;4.422;2023-08-31T11:30:20;20.42;55.13
68943;DHT22;60852;52.190;4.422;2023-08-31T11:32:52;20.50;55.14
68943;DHT22;60852;52.190;4.422;2023-08-31T11:35:19;20.66;54.60
68943;DHT22;60852;52.190;4.422;2023-08-31T11:37:50;20.65;54.29
68943;DHT22;60852;52.190;4.422;2023-08-31T11:40:16;20.47;53.25
68943;DHT22;60852;52.190;4.422;2023-08-31T11:42:41;20.57;54.50
68943;DHT22;60852;52.190;4.422;2023-08-31T11:45:10;20.73;53.93
68943;DHT22;60852;52.190;4.422;2023-08-31T11:47:36;20.67;52.34
68943;DHT22;60852;52.190;4.422;2023-08-31T11:50:06;20.63;53.69
68943;DHT22;60852;52.190;4.422;2023-08-31T11:52:32;20.56;54.81
68943;DHT22;60852;52.190;4.422;2023-08-31T11:54:59;20.65;54.66
68943;DHT22;60852;52.190;4.422;2023-08-31T11:57:26;20.81;54.00
68943;DHT22;60852;52.190;4.422;2023-08-31T11:59:52;20.94;52.59
68943;DHT22;60852;52.190;4.422;2023-08-31T12:02:20;21.03;51.93
68943;DHT22;60852;52.190;4.422;2023-08-31T12:04:46;20.97;52.03
68943;DHT22;60852;52.190;4.422;2023-08-31T12:07:21;20.93;51.48
68943;DHT22;60852;52.190;4.422;2023-08-31T12:09:47;20.87;52.26
68943;DHT22;60852;52.190;4.422;2023-08-31T12:12:19;20.94;52.01
68943;DHT22;60852;52.190;4.422;2023-08-31T12:14:45;21.00;52.60
68943;DHT22;60852;52.190;4.422;2023-08-31T12:17:10;21.06;52.28
68943;DHT22;60852;52.190;4.422;2023-08-31T12:19:37;20.98;53.38
68943;DHT22;60852;52.190;4.422;2023-08-31T12:22:05;21.01;52.91
68943;DHT22;60852;52.190;4.422;2023-08-31T12:24:40;21.06;50.43
68943;DHT22;60852;52.190;4.422;2023-08-31T12:27:06;21.10;51.79
68943;DHT22;60852;52.190;4.422;2023-08-31T12:29:32;21.17;53.44
68943;DHT22;60852;52.190;4.422;2023-08-31T12:31:57;21.10;52.39
68943;DHT22;60852;52.190;4.422;2023-08-31T12:34:23;21.07;52.38
68943;DHT22;60852;52.190;4.422;2023-08-31T12:36:49;20.98;52.57
68943;DHT22;60852;52.190;4.422;2023-08-31T12:39:14;20.98;52.05
68943;DHT22;60852;52.190;4.422;2023-08-31T12:41:40;20.96;52.62
68943;DHT22;60852;52.190;4.422;2023-08-31T12:44:07;21.01;52.96
68943;DHT22;60852;52.190;4.422;2023-08-31T12:46:33;21.23;52.54
68943;DHT22;60852;52.190;4.422;2023-08-31T12:49:02;21.23;52.13
68943;DHT22;60852;52.190;4.422;2023-08-31T12:51:31;21.28;52.16
68943;DHT22;60852;52.190;4.422;2023-08-31T12:53:57;21.35;51.86
68943;DHT22;60852;52.190;4.422;2023-08-31T12:56:23;21.30;50.11
68943;DHT22;60852;52.190;4.422;2023-08-31T12:58:53;21.18;50.82
68943;DHT22;60852;52.190;4.422;2023-08-31T13:01:20;20.98;51.49
68943;DHT22;60852;52.190;4.422;2023-08-31T13:03:47;21.01;52.40
68943;DHT22;60852;52.190;4.422;2023-08-31T13:06:13;21.11;51.69
68943;DHT22;60852;52.190;4.422;2023-08-31T13:08:39;21.08;51.35
68943;DHT22;60852;52.190;4.422;2023-08-31T13:11:04;21.00;51.81
68943;DHT22;60852;52.190;4.422;2023-08-31T13:13:31;21.10;52.48
68943;DHT22;60852;52.190;4.422;2023-08-31T13:15:59;21.00;50.02
68943;DHT22;60852;52.190;4.422;2023-08-31T13:18:25;20.91;51.94
68943;DHT22;60852;52.190;4.422;2023-08-31T13:20:54;20.86;51.99
68943;DHT22;60852;52.190;4.422;2023-08-31T13:23:21;20.84;51.77
68943;DHT22;60852;52.190;4.422;2023-08-31T13:25:47;20.97;52.74
68943;DHT22;60852;52.190;4.422;2023-08-31T13:28:13;21.11;50.79
68943;DHT22;60852;52.190;4.422;2023-08-31T13:30:38;21.18;52.09
68943;DHT22;60852;52.190;4.422;2023-08-31T13:33:04;21.32;50.76
68943;DHT22;60852;52.190;4.422;2023-08-31T13:35:30;21.30;50.90
68943;DHT22;60852;52.190;4.422;2023-08-31T13:37:56;21.24;50.84
68943;DHT22;60852;52.190;4.422;2023-08-31T13:40:22;21.24;50.59
68943;DHT22;60852;52.190;4.422;2023-08-31T13:42:55;21.24;50.13
68943;DHT22;60852;52.190;4.422;2023-08-31T13:45:24;21.24;51.24
68943;DHT22;60852;52.190;4.422;2023-08-31T13:47:50;21.15;50.61
68943;DHT22;60852;52.190;4.422;2023-08-31T13:50:16;21.03;50.58
68943;DHT22;60852;52.190;4.422;2023-08-31T13:52:42;21.12;49.68
68943;DHT22;60852;52.190;4.422;2023-08-31T13:55:07;21.17;49.82
68943;DHT22;60852;52.190;4.422;2023-08-31T13:57:33;21.17;50.00
68943;DHT22;60852;52.190;4.422;2023-08-31T13:59:59;21.20;51.43
68943;DHT22;60852;52.190;4.422;2023-08-31T14:02:25;21.21;50.87
68943;DHT22;60852;52.190;4.422;2023-08-31T14:04:51;21.14;50.88
68943;DHT22;60852;52.190;4.422;2023-08-31T14:07:17;21.10;50.74
68943;DHT22;60852;52.190;4.422;2023-08-31T14:09:43;20.97;50.37
68943;DHT22;60852;52.190;4.422;2023-08-31T14:12:08;20.96;50.28
68943;DHT22;60852;52.190;4.422;2023-08-31T14:14:34;20.98;50.52
68943;DHT22;60852;52.190;4.422;2023-08-31T14:17:00;21.06;50.68
68943;DHT22;60852;52.190;4.422;2023-08-31T14:19:25;21.10;49.90
68943;DHT22;60852;52.190;4.422;2023-08-31T14:21:51;21.06;50.01
68943;DHT22;60852;52.190;4.422;2023-08-31T14:24:19;20.97;49.19
68943;DHT22;60852;52.190;4.422;2023-08-31T14:26:44;20.88;49.83
68943;DHT22;60852;52.190;4.422;2023-08-31T14:29:11;20.94;50.11
68943;DHT22;60852;52.190;4.422;2023-08-31T14:31:37;20.90;49.93
68943;DHT22;60852;52.190;4.422;2023-08-31T14:34:03;20.88;51.17
68943;DHT22;60852;52.190;4.422;2023-08-31T14:36:28;20.86;51.16
68943;DHT22;60852;52.190;4.422;2023-08-31T14:38:54;20.93;50.42
68943;DHT22;60852;52.190;4.422;2023-08-31T14:41:19;20.88;49.75
68943;DHT22;60852;52.190;4.422;2023-08-31T14:43:45;20.86;49.17
68943;DHT22;60852;52.190;4.422;2023-08-31T14:46:10;20.86;49.39
68943;DHT22;60852;52.190;4.422;2023-08-31T14:48:36;20.88;49.13
68943;DHT22;60852;52.190;4.422;2023-08-31T14:51:01;20.83;48.57
68943;DHT22;60852;52.190;4.422;2023-08-31T14:53:27;20.81;49.56
68943;DHT22;60852;52.190;4.422;2023-08-31T14:55:53;20.76;49.87
68943;DHT22;60852;52.190;4.422;2023-08-31T14:58:19;20.72;49.56
68943;DHT22;60852;52.190;4.422;2023-08-31T15:00:45;20.79;50.12
68943;DHT22;60852;52.190;4.422;2023-08-31T15:03:11;20.88;50.35
68943;DHT22;60852;52.190;4.422;2023-08-31T15:05:36;20.91;50.04
68943;DHT22;60852;52.190;4.422;2023-08-31T15:08:05;20.98;50.19
68943;DHT22;60852;52.190;4.422;2023-08-31T15:10:30;21.04;50.25
68943;DHT22;60852;52.190;4.422;2023-08-31T15:12:56;20.97;48.43
68943;DHT22;60852;52.190;4.422;2023-08-31T15:15:28;20.96;49.60
68943;DHT22;60852;52.190;4.422;2023-08-31T15:17:54;20.93;49.81
68943;DHT22;60852;52.190;4.422;2023-08-31T15:20:19;20.87;49.63
68943;DHT22;60852;52.190;4.422;2023-08-31T15:22:45;20.83;49.41
68943;DHT22;60852;52.190;4.422;2023-08-31T15:25:10;20.76;49.16
68943;DHT22;60852;52.190;4.422;2023-08-31T15:27:36;20.72;49.36
68943;DHT22;60852;52.190;4.422;2023-08-31T15:30:03;20.65;49.89
68943;DHT22;60852;52.190;4.422;2023-08-31T15:32:30;20.66;51.12
68943;DHT22;60852;52.190;4.422;2023-08-31T15:34:56;20.66;50.05
68943;DHT22;60852;52.190;4.422;2023-08-31T15:37:22;20.65;50.19
68943;DHT22;60852;52.190;4.422;2023-08-31T15:39:47;20.72;50.99